createdAt,value
2023-05-18T00:00:29.025Z,100486.72
2023-05-18T00:02:56.316Z,100492.69
2023-05-18T00:05:23.528Z,100487.56
2023-05-18T00:07:51.824Z,100490.09
2023-05-18T00:10:19.239Z,100475.91
2023-05-18T00:12:47.516Z,100479.34
2023-05-18T00:15:14.536Z,100472.88
2023-05-18T00:17:41.495Z,100481.81
2023-05-18T00:20:09.823Z,100468.25
2023-05-18T00:22:36.794Z,100470.88
2023-05-18T00:25:05.747Z,100470.09
2023-05-18T00:27:32.612Z,100465.94
2023-05-18T00:29:59.539Z,100468.19
2023-05-18T00:32:26.479Z,100469.41
2023-05-18T00:34:53.399Z,100462.44
2023-05-18T00:37:20.360Z,100449.25
2023-05-18T00:39:47.525Z,100458.38
2023-05-18T00:42:15.990Z,100465.59
2023-05-18T00:44:42.966Z,100460.69
2023-05-18T00:47:10.040Z,100462.25
2023-05-18T00:49:38.043Z,100461.97
2023-05-18T00:52:06.066Z,100458.91
2023-05-18T00:54:33.560Z,100459.72
2023-05-18T00:57:01.126Z,100461.69
2023-05-18T00:59:31.060Z,100466.16
2023-05-18T01:01:58.458Z,100460.00
2023-05-18T01:04:25.511Z,100463.00
2023-05-18T01:06:52.421Z,100460.78
2023-05-18T01:09:19.276Z,100460.19
2023-05-18T01:12:00.195Z,100452.66
2023-05-18T01:14:38.087Z,100450.88
2023-05-18T01:17:16.222Z,100448.91
2023-05-18T01:20:22.078Z,100456.06
2023-05-18T01:23:06.125Z,100452.53
2023-05-18T01:25:46.121Z,100455.88
2023-05-18T01:28:20.357Z,100456.34
2023-05-18T01:30:48.612Z,100458.84
2023-05-18T01:33:15.746Z,100450.28
2023-05-18T01:35:42.655Z,100462.94
2023-05-18T01:38:09.855Z,100456.72
2023-05-18T01:40:52.465Z,100456.63
2023-05-18T01:44:37.341Z,100449.38
2023-05-18T01:47:12.520Z,100454.28
2023-05-18T01:49:48.047Z,100454.19
2023-05-18T01:52:19.733Z,100447.63
2023-05-18T01:54:54.770Z,100451.41
2023-05-18T01:58:39.405Z,100450.41
2023-05-18T02:01:09.835Z,100455.22
2023-05-18T02:03:39.019Z,100450.75
2023-05-18T02:06:06.232Z,100450.38
2023-05-18T02:08:33.247Z,100442.06
2023-05-18T02:11:00.408Z,100450.19
2023-05-18T02:13:27.896Z,100448.94
2023-05-18T02:15:55.050Z,100453.97
2023-05-18T02:18:23.820Z,100448.19
2023-05-18T02:20:58.268Z,100451.53
2023-05-18T02:23:25.168Z,100445.28
2023-05-18T02:25:52.684Z,100444.19
2023-05-18T02:29:34.456Z,100439.97
2023-05-18T02:32:01.590Z,100445.94
2023-05-18T02:34:29.185Z,100439.03
2023-05-18T02:36:59.374Z,100443.59
2023-05-18T02:39:26.474Z,100446.47
2023-05-18T02:41:53.318Z,100440.22
2023-05-18T02:44:21.052Z,100434.22
2023-05-18T02:46:49.010Z,100436.91
2023-05-18T02:49:16.095Z,100443.13
2023-05-18T02:51:43.160Z,100441.91
2023-05-18T02:54:12.309Z,100435.16
2023-05-18T02:57:58.447Z,100442.41
2023-05-18T03:00:42.871Z,100445.41
2023-05-18T03:03:10.014Z,100438.34
2023-05-18T03:05:37.308Z,100437.63
2023-05-18T03:14:12.310Z,100439.63
2023-05-18T03:17:08.051Z,100439.38
2023-05-18T03:19:35.182Z,100436.56
2023-05-18T03:22:02.265Z,100435.72
2023-05-18T03:24:29.252Z,100432.47
2023-05-18T03:26:58.158Z,100427.56
2023-05-18T03:29:25.669Z,100441.03
2023-05-18T03:31:53.190Z,100439.56
2023-05-18T03:34:21.557Z,100444.97
2023-05-18T03:36:48.574Z,100439.66
2023-05-18T03:39:15.492Z,100446.91
2023-05-18T03:41:42.452Z,100438.94
2023-05-18T03:48:10.522Z,100440.50
2023-05-18T03:50:39.519Z,100444.47
2023-05-18T03:53:06.426Z,100444.78
2023-05-18T03:55:33.357Z,100448.31
2023-05-18T03:58:00.580Z,100450.28
2023-05-18T04:00:27.433Z,100451.56
2023-05-18T04:02:54.450Z,100457.13
2023-05-18T04:05:24.767Z,100451.09
2023-05-18T04:07:53.309Z,100461.13
2023-05-18T04:10:20.214Z,100458.63
2023-05-18T04:12:58.724Z,100456.38
2023-05-18T04:15:25.853Z,100456.72
2023-05-18T04:17:52.841Z,100462.44
2023-05-18T04:20:19.862Z,100468.31
2023-05-18T04:22:48.234Z,100463.88
2023-05-18T04:25:17.478Z,100463.72
2023-05-18T04:27:44.825Z,100462.53
2023-05-18T04:30:13.915Z,100473.50
2023-05-18T04:32:43.139Z,100472.38
2023-05-18T04:35:11.934Z,100477.78
2023-05-18T04:37:40.129Z,100472.53
2023-05-18T04:40:11.572Z,100474.22
2023-05-18T04:42:40.354Z,100471.63
2023-05-18T04:45:08.381Z,100473.16
2023-05-18T04:47:40.126Z,100469.59
2023-05-18T04:50:17.062Z,100459.38
2023-05-18T04:52:46.579Z,100473.53
2023-05-18T04:55:14.169Z,100480.25
2023-05-18T04:57:42.413Z,100477.94
2023-05-18T05:00:11.088Z,100480.81
2023-05-18T05:02:38.230Z,100480.84
2023-05-18T05:05:06.162Z,100482.34
2023-05-18T05:07:34.555Z,100487.69
2023-05-18T05:10:01.441Z,100482.13
2023-05-18T05:12:29.723Z,100487.19
2023-05-18T05:14:58.114Z,100482.72
2023-05-18T05:17:25.832Z,100473.09
2023-05-18T05:19:52.778Z,100476.59
2023-05-18T05:22:19.848Z,100478.75
2023-05-18T05:24:47.099Z,100468.59
2023-05-18T05:27:39.080Z,100471.72
2023-05-18T05:30:09.312Z,100470.19
2023-05-18T05:32:37.809Z,100466.19
2023-05-18T05:35:07.604Z,100470.50
2023-05-18T05:37:36.282Z,100464.09
2023-05-18T05:40:04.508Z,100466.22
2023-05-18T05:42:34.347Z,100461.38
2023-05-18T05:45:02.850Z,100467.31
2023-05-18T05:47:33.174Z,100463.25
2023-05-18T05:50:00.318Z,100477.75
2023-05-18T05:52:28.124Z,100467.56
2023-05-18T05:54:55.311Z,100476.59
2023-05-18T05:57:22.242Z,100481.22
2023-05-18T05:59:49.723Z,100478.59
2023-05-18T06:02:16.710Z,100476.56
2023-05-18T06:04:47.856Z,100482.56
2023-05-18T06:11:47.700Z,100485.19
2023-05-18T06:14:16.934Z,100477.16
2023-05-18T06:16:44.968Z,100477.88
2023-05-18T06:19:12.056Z,100474.97
2023-05-18T06:21:40.501Z,100472.34
2023-05-18T06:24:09.182Z,100486.06
2023-05-18T06:26:50.759Z,100484.72
2023-05-18T06:29:38.261Z,100495.19
2023-05-18T06:32:13.634Z,100485.34
2023-05-18T06:34:43.719Z,100488.44
2023-05-18T06:37:12.872Z,100496.69
2023-05-18T06:39:39.782Z,100492.28
2023-05-18T06:42:07.724Z,100480.75
2023-05-18T06:44:34.977Z,100480.84
2023-05-18T06:47:07.448Z,100481.25
2023-05-18T06:49:34.589Z,100478.09
2023-05-18T06:52:02.925Z,100472.97
2023-05-18T06:54:31.418Z,100478.66
2023-05-18T06:56:59.200Z,100482.28
2023-05-18T06:59:27.284Z,100481.22
2023-05-18T07:01:55.437Z,100475.53
2023-05-18T07:04:23.024Z,100483.22
2023-05-18T07:06:50.187Z,100479.69
2023-05-18T07:09:17.116Z,100479.56
2023-05-18T07:11:46.794Z,100481.94
2023-05-18T07:14:14.921Z,100482.63
2023-05-18T07:16:42.425Z,100476.47
2023-05-18T07:19:09.539Z,100474.69
2023-05-18T07:21:36.509Z,100480.38
2023-05-18T07:24:04.339Z,100478.56
2023-05-18T07:26:31.302Z,100479.94
2023-05-18T07:28:59.771Z,100477.28
2023-05-18T07:31:27.933Z,100471.34
2023-05-18T07:33:54.837Z,100476.50
2023-05-18T07:36:21.664Z,100480.31
2023-05-18T07:38:48.524Z,100476.34
2023-05-18T07:41:15.351Z,100477.50
2023-05-18T07:43:42.708Z,100471.19
2023-05-18T07:46:11.298Z,100472.47
2023-05-18T07:48:53.575Z,100476.56
2023-05-18T07:51:20.783Z,100479.94
2023-05-18T07:53:48.812Z,100469.97
2023-05-18T07:56:18.241Z,100464.44
2023-05-18T07:58:46.078Z,100469.31
2023-05-18T08:01:15.921Z,100458.59
2023-05-18T08:04:59.833Z,100461.97
2023-05-18T08:07:29.032Z,100466.00
2023-05-18T08:09:57.165Z,100463.56
2023-05-18T08:12:46.526Z,100463.53
2023-05-18T08:15:13.779Z,100460.22
2023-05-18T08:17:42.527Z,100471.69
2023-05-18T08:20:11.495Z,100452.78
2023-05-18T08:22:38.952Z,100452.97
2023-05-18T08:25:07.175Z,100458.88
2023-05-18T08:27:34.219Z,100453.97
2023-05-18T08:30:51.763Z,100448.28
2023-05-18T08:33:20.324Z,100442.81
2023-05-18T08:35:47.364Z,100449.47
2023-05-18T08:38:14.217Z,100447.19
2023-05-18T08:40:50.972Z,100449.84
2023-05-18T08:43:48.689Z,100452.63
2023-05-18T08:46:23.010Z,100452.34
2023-05-18T08:48:54.803Z,100438.75
2023-05-18T08:51:22.906Z,100441.53
2023-05-18T08:53:53.871Z,100431.13
2023-05-18T08:56:48.011Z,100428.38
2023-05-18T08:59:20.755Z,100430.06
2023-05-18T09:01:49.402Z,100436.34
2023-05-18T09:04:27.511Z,100427.69
2023-05-18T09:07:26.790Z,100420.41
2023-05-18T09:10:00.583Z,100420.25
2023-05-18T09:12:28.936Z,100411.28
2023-05-18T09:14:57.179Z,100423.59
2023-05-18T09:17:24.385Z,100424.81
2023-05-18T09:19:52.787Z,100418.50
2023-05-18T09:22:20.228Z,100413.53
2023-05-18T09:24:48.799Z,100411.41
2023-05-18T09:27:16.875Z,100401.56
2023-05-18T09:30:03.367Z,100410.56
2023-05-18T09:32:35.885Z,100415.22
2023-05-18T09:35:09.527Z,100404.59
2023-05-18T09:37:36.816Z,100420.66
2023-05-18T09:40:06.602Z,100416.47
2023-05-18T09:43:07.390Z,100403.47
2023-05-18T09:45:43.049Z,100416.78
2023-05-18T09:48:10.820Z,100409.41
2023-05-18T09:50:39.323Z,100410.97
2023-05-18T09:53:08.484Z,100402.22
2023-05-18T09:55:38.373Z,100398.84
2023-05-18T09:58:07.691Z,100399.66
2023-05-18T10:01:03.200Z,100390.84
2023-05-18T10:03:35.350Z,100399.97
2023-05-18T10:06:07.553Z,100392.97
2023-05-18T10:08:37.472Z,100388.75
2023-05-18T10:11:05.524Z,100387.69
2023-05-18T10:13:34.739Z,100400.25
2023-05-18T10:16:05.077Z,100391.16
2023-05-18T10:18:35.626Z,100403.56
2023-05-18T10:21:06.653Z,100394.22
2023-05-18T10:23:37.182Z,100391.09
2023-05-18T10:26:07.829Z,100387.19
2023-05-18T10:28:42.339Z,100377.94
2023-05-18T10:32:31.586Z,100383.75
2023-05-18T10:35:01.448Z,100394.91
2023-05-18T10:37:33.514Z,100380.94
2023-05-18T10:40:03.260Z,100388.78
2023-05-18T10:42:31.109Z,100376.94
2023-05-18T10:44:58.257Z,100381.88
2023-05-18T10:47:28.093Z,100367.06
2023-05-18T10:49:55.873Z,100372.72
2023-05-18T10:52:24.271Z,100372.53
2023-05-18T10:54:53.801Z,100388.63
2023-05-18T10:57:22.134Z,100365.13
2023-05-18T10:59:49.399Z,100382.28
2023-05-18T11:02:19.501Z,100363.19
2023-05-18T11:04:47.566Z,100369.97
2023-05-18T11:07:16.006Z,100378.19
2023-05-18T11:09:44.340Z,100350.94
2023-05-18T11:13:29.159Z,100358.53
2023-05-18T11:16:08.906Z,100376.00
2023-05-18T11:18:40.708Z,100361.25
2023-05-18T11:21:54.588Z,100347.50
2023-05-18T11:24:24.994Z,100353.22
2023-05-18T11:27:15.513Z,100349.13
2023-05-18T11:29:45.278Z,100347.03
2023-05-18T11:32:30.455Z,100351.84
2023-05-18T11:34:59.460Z,100349.28
2023-05-18T11:37:48.595Z,100331.44
2023-05-18T11:40:47.199Z,100366.34
2023-05-18T11:43:21.562Z,100343.88
2023-05-18T11:45:58.991Z,100336.78
2023-05-18T11:48:28.879Z,100331.09
2023-05-18T11:50:56.455Z,100331.94
2023-05-18T11:53:24.989Z,100334.88
2023-05-18T11:55:53.156Z,100333.94
2023-05-18T11:58:21.249Z,100325.13
2023-05-18T12:00:56.125Z,100339.56
2023-05-18T12:03:25.997Z,100350.56
2023-05-18T12:06:00.154Z,100338.91
2023-05-18T12:08:27.650Z,100342.97
2023-05-18T12:10:56.252Z,100338.03
2023-05-18T12:13:51.267Z,100347.16
2023-05-18T12:16:19.541Z,100326.22
2023-05-18T12:18:49.467Z,100321.78
2023-05-18T12:21:22.531Z,100317.50
2023-05-18T12:23:49.464Z,100329.19
2023-05-18T12:26:17.327Z,100318.38
2023-05-18T12:28:44.458Z,100317.31
2023-05-18T12:31:12.105Z,100321.53
2023-05-18T12:33:39.053Z,100320.41
2023-05-18T12:36:10.585Z,100312.13
2023-05-18T12:38:38.923Z,100310.31
2023-05-18T12:41:06.023Z,100308.19
2023-05-18T12:43:36.916Z,100300.59
2023-05-18T12:46:05.128Z,100288.25
2023-05-18T12:48:36.565Z,100311.69
2023-05-18T12:51:04.614Z,100306.91
2023-05-18T12:53:42.482Z,100316.97
2023-05-18T12:56:09.451Z,100314.25
2023-05-18T12:58:36.266Z,100302.09
2023-05-18T13:01:08.481Z,100294.75
2023-05-18T13:03:38.735Z,100294.41
2023-05-18T13:06:08.613Z,100276.13
2023-05-18T13:08:37.370Z,100301.44
2023-05-18T13:13:37.944Z,100285.19
2023-05-18T13:16:15.254Z,100282.41
2023-05-18T13:18:46.358Z,100290.69
2023-05-18T13:21:14.028Z,100290.97
2023-05-18T13:23:41.191Z,100278.50
2023-05-18T13:26:13.002Z,100283.97
2023-05-18T13:28:40.065Z,100289.16
2023-05-18T13:31:07.027Z,100274.16
2023-05-18T13:33:34.104Z,100277.88
2023-05-18T13:36:01.121Z,100276.66
2023-05-18T13:38:28.022Z,100273.63
2023-05-18T13:40:55.597Z,100277.16
2023-05-18T13:43:23.919Z,100280.69
2023-05-18T13:45:50.840Z,100281.38
2023-05-18T13:48:17.799Z,100270.28
2023-05-18T13:50:45.086Z,100264.00
2023-05-18T13:53:15.745Z,100267.72
2023-05-18T13:55:42.689Z,100260.97
2023-05-18T13:58:09.608Z,100259.78
2023-05-18T14:00:38.516Z,100263.78
2023-05-18T14:03:05.486Z,100264.47
2023-05-18T14:05:32.363Z,100271.03
2023-05-18T14:08:00.129Z,100256.91
2023-05-18T14:10:26.987Z,100256.69
2023-05-18T14:12:54.121Z,100240.66
2023-05-18T14:15:21.135Z,100247.94
2023-05-18T14:17:50.502Z,100208.16
2023-05-18T14:20:17.843Z,100247.91
2023-05-18T14:22:45.101Z,100229.78
2023-05-18T14:25:12.017Z,100237.28
2023-05-18T14:27:39.095Z,100232.59
2023-05-18T14:30:08.077Z,100222.53
2023-05-18T14:32:35.117Z,100228.22
2023-05-18T14:35:04.121Z,100228.84
2023-05-18T14:37:30.965Z,100234.91
2023-05-18T14:39:57.831Z,100220.38
2023-05-18T14:42:25.664Z,100217.25
2023-05-18T14:44:52.645Z,100214.94
2023-05-18T14:47:19.580Z,100216.16
2023-05-18T14:49:46.464Z,100211.69
2023-05-18T14:52:14.940Z,100210.88
2023-05-18T14:54:42.824Z,100212.31
2023-05-18T14:57:09.837Z,100193.84
2023-05-18T14:59:36.812Z,100208.63
2023-05-18T15:02:04.162Z,100206.00
2023-05-18T15:04:30.954Z,100218.50
2023-05-18T15:06:59.043Z,100211.25
2023-05-18T15:09:27.675Z,100211.06
2023-05-18T15:11:54.634Z,100214.13
2023-05-18T15:14:22.091Z,100205.47
2023-05-18T15:16:49.070Z,100197.72
2023-05-18T15:19:15.982Z,100216.75
2023-05-18T15:21:43.918Z,100213.53
2023-05-18T15:24:11.129Z,100213.75
2023-05-18T15:26:40.131Z,100216.75
2023-05-18T15:29:07.461Z,100211.19
2023-05-18T15:31:34.571Z,100210.06
2023-05-18T15:34:01.421Z,100202.81
2023-05-18T15:36:28.432Z,100207.31
2023-05-18T15:38:55.394Z,100211.19
2023-05-18T15:41:23.274Z,100206.97
2023-05-18T15:43:51.466Z,100207.94
2023-05-18T15:46:18.431Z,100203.25
2023-05-18T15:48:45.324Z,100209.03
2023-05-18T15:51:12.232Z,100195.13
2023-05-18T15:53:39.270Z,100192.13
2023-05-18T15:56:08.720Z,100187.19
2023-05-18T15:58:36.074Z,100190.69
2023-05-18T16:01:04.869Z,100196.84
2023-05-18T16:03:31.878Z,100210.88
2023-05-18T16:05:59.636Z,100194.47
2023-05-18T16:08:26.421Z,100194.69
2023-05-18T16:10:53.560Z,100198.38
2023-05-18T16:13:20.651Z,100195.41
2023-05-18T16:15:48.930Z,100192.63
2023-05-18T16:18:17.366Z,100196.50
2023-05-18T16:20:46.681Z,100201.00
2023-05-18T16:23:13.784Z,100197.09
2023-05-18T16:25:40.753Z,100195.16
2023-05-18T16:28:07.856Z,100202.81
2023-05-18T16:30:35.364Z,100202.34
2023-05-18T16:33:02.349Z,100203.47
2023-05-18T16:35:30.861Z,100197.53
2023-05-18T16:37:57.789Z,100205.72
2023-05-18T16:40:26.937Z,100199.66
2023-05-18T16:42:54.403Z,100204.31
2023-05-18T16:45:21.503Z,100194.25
2023-05-18T16:47:48.609Z,100191.41
2023-05-18T16:50:18.345Z,100196.75
2023-05-18T16:52:48.337Z,100190.25
2023-05-18T16:55:15.308Z,100191.84
2023-05-18T16:57:42.758Z,100211.91
2023-05-18T17:00:11.525Z,100211.09
2023-05-18T17:02:38.969Z,100202.84
2023-05-18T17:05:07.707Z,100197.63
2023-05-18T17:07:35.229Z,100202.72
2023-05-18T17:10:06.026Z,100205.03
2023-05-18T17:12:32.926Z,100198.97
2023-05-18T17:14:59.737Z,100199.22
2023-05-18T17:17:26.707Z,100210.31
2023-05-18T17:19:53.882Z,100217.25
2023-05-18T17:22:21.932Z,100209.66
2023-05-18T17:24:49.022Z,100205.59
2023-05-18T17:27:18.113Z,100212.06
2023-05-18T17:29:45.012Z,100213.16
2023-05-18T17:32:11.960Z,100209.44
2023-05-18T17:34:39.121Z,100204.22
2023-05-18T17:37:06.035Z,100217.28
2023-05-18T17:39:33.220Z,100217.97
2023-05-18T17:42:00.331Z,100211.03
2023-05-18T17:44:28.805Z,100220.38
2023-05-18T17:46:56.800Z,100226.50
2023-05-18T17:49:23.927Z,100222.47
2023-05-18T17:51:51.158Z,100217.09
2023-05-18T17:54:18.372Z,100212.19
2023-05-18T17:56:45.297Z,100217.16
2023-05-18T17:59:12.740Z,100223.47
2023-05-18T18:01:41.215Z,100214.84
2023-05-18T18:04:08.266Z,100214.53
2023-05-18T18:06:35.954Z,100209.94
2023-05-18T18:09:04.573Z,100217.25
2023-05-18T18:11:32.787Z,100211.19
2023-05-18T18:14:00.594Z,100216.00
2023-05-18T18:16:27.826Z,100208.31
2023-05-18T18:18:57.367Z,100220.72
2023-05-18T18:21:25.227Z,100218.97
2023-05-18T18:23:52.266Z,100217.72
2023-05-18T18:26:23.076Z,100226.47
2023-05-18T18:28:50.205Z,100217.72
2023-05-18T18:31:17.674Z,100221.50
2023-05-18T18:33:44.845Z,100225.28
2023-05-18T18:36:13.754Z,100227.97
2023-05-18T18:38:41.787Z,100230.47
2023-05-18T18:41:13.361Z,100231.91
2023-05-18T18:43:40.359Z,100229.31
2023-05-18T18:46:07.448Z,100233.50
2023-05-18T18:48:34.895Z,100241.94
2023-05-18T18:51:03.814Z,100242.06
2023-05-18T18:53:32.205Z,100242.97
2023-05-18T18:56:00.505Z,100244.19
2023-05-18T18:58:27.533Z,100246.47
2023-05-18T19:00:54.830Z,100244.47
2023-05-18T19:03:21.934Z,100246.03
2023-05-18T19:05:49.761Z,100237.72
2023-05-18T19:08:17.447Z,100251.50
2023-05-18T19:10:45.692Z,100244.63
2023-05-18T19:13:13.893Z,100252.59
2023-05-18T19:15:41.072Z,100260.88
2023-05-18T19:18:08.885Z,100258.03
2023-05-18T19:20:40.744Z,100271.88
2023-05-18T19:23:07.716Z,100274.59
2023-05-18T19:25:35.366Z,100271.13
2023-05-18T19:28:03.976Z,100281.69
2023-05-18T19:30:31.721Z,100277.06
2023-05-18T19:32:59.283Z,100277.06
2023-05-18T19:35:26.290Z,100282.16
2023-05-18T19:37:53.251Z,100278.50
2023-05-18T19:40:21.327Z,100277.00
2023-05-18T19:42:48.751Z,100278.78
2023-05-18T19:45:17.034Z,100279.94
2023-05-18T19:47:44.023Z,100282.91
2023-05-18T19:50:11.687Z,100291.16
2023-05-18T19:52:38.544Z,100288.34
2023-05-18T19:55:07.256Z,100299.41
2023-05-18T19:57:34.452Z,100297.38
2023-05-18T20:00:01.986Z,100297.44
2023-05-18T20:02:40.658Z,100296.97
2023-05-18T20:05:08.405Z,100307.88
2023-05-18T20:07:35.423Z,100307.94
2023-05-18T20:10:02.601Z,100316.94
2023-05-18T20:12:31.011Z,100315.19
2023-05-18T20:14:58.076Z,100310.88
2023-05-18T20:17:25.428Z,100313.94
2023-05-18T20:19:53.833Z,100313.84
2023-05-18T20:22:20.788Z,100316.88
2023-05-18T20:24:49.297Z,100313.56
2023-05-18T20:27:16.764Z,100312.19
2023-05-18T20:29:51.191Z,100305.09
2023-05-18T20:32:18.648Z,100317.56
2023-05-18T20:34:45.651Z,100320.97
2023-05-18T20:37:14.229Z,100315.81
2023-05-18T20:39:42.115Z,100327.22
2023-05-18T20:42:09.277Z,100320.06
2023-05-18T20:44:36.732Z,100326.53
2023-05-18T20:47:05.066Z,100321.91
2023-05-18T20:49:32.143Z,100326.19
2023-05-18T20:51:59.328Z,100322.09
2023-05-18T20:54:28.196Z,100330.78
2023-05-18T20:56:55.534Z,100327.06
2023-05-18T20:59:23.095Z,100328.19
2023-05-18T21:01:51.111Z,100323.44
2023-05-18T21:04:19.534Z,100322.41
2023-05-18T21:06:46.906Z,100321.78
2023-05-18T21:09:13.872Z,100328.00
2023-05-18T21:11:42.360Z,100324.97
2023-05-18T21:14:09.469Z,100323.16
2023-05-18T21:16:37.191Z,100325.34
2023-05-18T21:19:04.500Z,100324.56
2023-05-18T21:21:32.388Z,100327.97
2023-05-18T21:24:00.747Z,100318.63
2023-05-18T21:26:27.866Z,100325.66
2023-05-18T21:28:56.648Z,100329.06
2023-05-18T21:31:23.682Z,100320.00
2023-05-18T21:33:50.860Z,100323.91
2023-05-18T21:36:26.300Z,100316.34
2023-05-18T21:38:53.862Z,100315.78
2023-05-18T21:41:21.197Z,100319.88
2023-05-18T21:43:48.538Z,100310.16
2023-05-18T21:46:17.057Z,100310.78
2023-05-18T21:48:44.128Z,100308.41
2023-05-18T21:51:11.203Z,100309.88
2023-05-18T21:53:38.632Z,100313.41
2023-05-18T21:56:07.013Z,100321.34
2023-05-18T21:58:34.184Z,100319.88
2023-05-18T22:01:01.218Z,100320.06
2023-05-18T22:03:29.589Z,100318.34
2023-05-18T22:05:56.956Z,100312.97
2023-05-18T22:08:24.183Z,100328.66
2023-05-18T22:10:51.303Z,100326.16
2023-05-18T22:13:18.595Z,100321.44
2023-05-18T22:15:45.562Z,100339.09
2023-05-18T22:18:12.715Z,100332.88
2023-05-18T22:20:41.370Z,100341.88
2023-05-18T22:23:08.311Z,100346.31
2023-05-18T22:25:35.460Z,100337.09
2023-05-18T22:28:02.632Z,100342.19
2023-05-18T22:30:29.983Z,100335.25
2023-05-18T22:32:56.997Z,100331.41
2023-05-18T22:35:24.111Z,100327.94
2023-05-18T22:37:52.437Z,100332.28
2023-05-18T22:40:19.324Z,100325.00
2023-05-18T22:42:47.834Z,100321.63
2023-05-18T22:45:14.801Z,100329.13
2023-05-18T22:47:42.210Z,100332.69
2023-05-18T22:50:10.047Z,100327.66
2023-05-18T22:52:37.509Z,100327.72
2023-05-18T22:55:07.682Z,100322.91
2023-05-18T22:57:35.238Z,100321.22
2023-05-18T23:00:02.199Z,100326.63
2023-05-18T23:02:29.716Z,100329.91
2023-05-18T23:04:59.699Z,100323.63
2023-05-18T23:07:26.719Z,100325.91
2023-05-18T23:09:54.170Z,100324.47
2023-05-18T23:12:22.600Z,100322.34
2023-05-18T23:14:51.235Z,100321.75
2023-05-18T23:17:18.147Z,100321.78
2023-05-18T23:19:45.299Z,100319.28
2023-05-18T23:22:13.000Z,100315.56
2023-05-18T23:24:39.973Z,100318.47
2023-05-18T23:27:06.898Z,100324.34
2023-05-18T23:29:35.252Z,100330.63
2023-05-18T23:32:02.923Z,100321.06
2023-05-18T23:34:30.575Z,100322.13
2023-05-18T23:37:03.138Z,100321.31
2023-05-18T23:39:39.670Z,100320.25
2023-05-18T23:42:08.601Z,100314.41
2023-05-18T23:44:37.980Z,100317.75
2023-05-18T23:47:05.959Z,100311.47
2023-05-18T23:49:33.859Z,100314.81
2023-05-18T23:52:02.669Z,100318.38
2023-05-18T23:54:31.862Z,100309.66
2023-05-18T23:57:00.000Z,100311.09
2023-05-18T23:59:27.846Z,100310.25
